createdAt,value
2018-08-18T00:00:33.227Z,7.93
2018-08-18T00:03:03.152Z,8.13
2018-08-18T00:05:32.720Z,7.87
2018-08-18T00:08:02.108Z,8.20
2018-08-18T00:10:31.960Z,7.20
2018-08-18T00:13:01.785Z,6.67
2018-08-18T00:15:31.694Z,7.83
2018-08-18T00:18:01.863Z,9.43
2018-08-18T00:20:31.392Z,7.73
2018-08-18T00:23:01.394Z,8.07
2018-08-18T00:25:31.022Z,6.93
2018-08-18T00:28:11.660Z,6.43
2018-08-18T00:30:41.452Z,6.87
2018-08-18T00:33:11.063Z,6.57
2018-08-18T00:35:40.773Z,7.27
2018-08-18T00:38:10.377Z,8.37
2018-08-18T00:40:39.512Z,8.40
2018-08-18T00:43:09.294Z,7.97
2018-08-18T00:45:38.838Z,7.70
2018-08-18T00:48:08.550Z,8.57
2018-08-18T00:50:43.586Z,7.97
2018-08-18T00:53:14.858Z,7.90
2018-08-18T00:55:44.752Z,8.00
2018-08-18T00:58:20.410Z,8.43
2018-08-18T01:00:54.903Z,7.80
2018-08-18T01:03:24.603Z,9.67
2018-08-18T01:05:54.308Z,10.87
2018-08-18T01:08:24.134Z,9.37
2018-08-18T01:10:54.027Z,8.07
2018-08-18T01:13:23.670Z,6.80
2018-08-18T01:15:53.256Z,7.27
2018-08-18T01:18:23.450Z,8.50
2018-08-18T01:20:52.956Z,9.27
2018-08-18T01:23:22.579Z,7.37
2018-08-18T01:25:51.976Z,8.70
2018-08-18T01:28:21.366Z,8.20
2018-08-18T01:31:05.048Z,9.73
2018-08-18T01:33:35.503Z,12.20
2018-08-18T01:36:05.430Z,9.17
2018-08-18T01:38:36.356Z,8.87
2018-08-18T01:41:15.192Z,9.27
2018-08-18T01:43:46.022Z,9.63
2018-08-18T01:46:17.401Z,11.73
2018-08-18T01:48:49.460Z,9.73
2018-08-18T01:51:21.684Z,10.93
2018-08-18T01:53:51.332Z,11.20
2018-08-18T01:56:20.935Z,9.23
2018-08-18T01:58:50.841Z,9.73
2018-08-18T02:01:20.414Z,9.67
2018-08-18T02:03:50.289Z,8.40
2018-08-18T02:06:20.327Z,9.30
2018-08-18T02:08:57.730Z,8.27
2018-08-18T02:11:27.423Z,10.03
2018-08-18T02:13:57.769Z,8.77
2018-08-18T02:16:27.990Z,7.93
2018-08-18T02:18:57.377Z,10.57
2018-08-18T02:21:35.871Z,8.70
2018-08-18T02:24:06.368Z,8.87
2018-08-18T02:26:36.677Z,10.20
2018-08-18T02:29:06.153Z,8.00
2018-08-18T02:31:35.667Z,9.30
2018-08-18T02:34:05.174Z,11.30
2018-08-18T02:36:35.839Z,9.43
2018-08-18T02:39:07.026Z,10.30
2018-08-18T02:41:37.811Z,8.00
2018-08-18T02:44:07.142Z,8.47
2018-08-18T02:46:37.947Z,6.90
2018-08-18T02:49:07.499Z,9.00
2018-08-18T02:51:37.604Z,8.93
2018-08-18T02:54:07.221Z,8.17
2018-08-18T02:56:43.095Z,8.60
2018-08-18T02:59:13.070Z,10.27
2018-08-18T03:01:44.012Z,7.63
2018-08-18T03:04:15.167Z,8.10
2018-08-18T03:06:44.823Z,7.93
2018-08-18T03:09:14.536Z,10.27
2018-08-18T03:11:44.343Z,8.87
2018-08-18T03:14:13.714Z,10.83
2018-08-18T03:16:43.379Z,8.13
2018-08-18T03:19:14.334Z,8.80
2018-08-18T03:21:44.061Z,14.10
2018-08-18T03:24:16.790Z,7.97
2018-08-18T03:26:48.186Z,8.10
2018-08-18T03:29:19.308Z,8.80
2018-08-18T03:31:49.203Z,7.80
2018-08-18T03:34:19.045Z,9.13
2018-08-18T03:36:52.626Z,7.97
2018-08-18T03:39:39.965Z,10.87
2018-08-18T03:42:09.363Z,8.17
2018-08-18T03:44:43.713Z,9.60
2018-08-18T03:47:13.161Z,8.80
2018-08-18T03:49:42.495Z,8.80
2018-08-18T03:52:11.965Z,8.53
2018-08-18T03:54:41.220Z,9.73
2018-08-18T03:57:10.977Z,8.87
2018-08-18T03:59:40.472Z,7.77
2018-08-18T04:02:09.708Z,9.70
2018-08-18T04:04:39.056Z,7.67
2018-08-18T04:07:09.019Z,7.93
2018-08-18T04:09:39.341Z,7.83
2018-08-18T04:12:11.041Z,8.10
2018-08-18T04:14:43.537Z,9.97
2018-08-18T04:17:25.137Z,8.40
2018-08-18T04:19:55.057Z,9.80
2018-08-18T04:22:24.887Z,8.27
2018-08-18T04:24:56.273Z,7.97
2018-08-18T04:27:37.763Z,8.87
2018-08-18T04:30:11.904Z,8.70
2018-08-18T04:32:51.245Z,7.83
2018-08-18T04:35:23.404Z,9.77
2018-08-18T04:37:54.535Z,8.80
2018-08-18T04:40:24.900Z,9.80
2018-08-18T04:42:57.833Z,8.23
2018-08-18T04:45:28.235Z,9.60
2018-08-18T04:48:00.419Z,8.63
2018-08-18T04:50:30.650Z,7.90
2018-08-18T04:53:01.668Z,13.00
2018-08-18T04:55:32.988Z,8.23
2018-08-18T04:58:03.415Z,10.07
2018-08-18T05:00:33.943Z,8.40
2018-08-18T05:03:04.335Z,9.97
2018-08-18T05:05:35.328Z,9.10
2018-08-18T05:08:06.364Z,10.53
2018-08-18T05:10:37.916Z,8.97
2018-08-18T05:13:08.774Z,11.00
2018-08-18T05:15:39.289Z,8.73
2018-08-18T05:18:09.899Z,7.63
2018-08-18T05:20:40.350Z,9.03
2018-08-18T05:23:21.862Z,9.23
2018-08-18T05:25:53.608Z,10.27
2018-08-18T05:28:23.851Z,8.87
2018-08-18T05:30:54.518Z,8.33
2018-08-18T05:33:25.119Z,8.00
2018-08-18T05:35:55.285Z,10.43
2018-08-18T05:38:25.769Z,11.47
2018-08-18T05:40:56.718Z,10.60
2018-08-18T05:43:27.980Z,11.20
2018-08-18T05:45:59.027Z,16.27
2018-08-18T05:48:29.658Z,12.97
2018-08-18T05:51:00.496Z,17.17
2018-08-18T05:53:33.039Z,12.90
2018-08-18T05:56:04.739Z,12.80
2018-08-18T05:58:50.954Z,16.93
2018-08-18T06:01:26.591Z,16.10
2018-08-18T06:04:01.854Z,13.77
2018-08-18T06:06:32.179Z,13.13
2018-08-18T06:09:03.060Z,16.20
2018-08-18T06:11:33.988Z,17.43
2018-08-18T06:14:04.586Z,14.30
2018-08-18T06:16:34.521Z,15.60
2018-08-18T06:19:05.468Z,13.37
2018-08-18T06:21:35.968Z,19.07
2018-08-18T06:24:06.493Z,15.17
2018-08-18T06:26:36.774Z,16.93
2018-08-18T06:29:07.906Z,14.43
2018-08-18T06:32:05.130Z,14.67
2018-08-18T06:34:40.875Z,14.73
2018-08-18T06:37:11.846Z,15.27
2018-08-18T06:40:05.292Z,16.13
2018-08-18T06:42:40.024Z,12.67
2018-08-18T06:45:12.040Z,14.90
2018-08-18T06:47:43.165Z,14.83
2018-08-18T06:50:14.924Z,13.40
2018-08-18T06:52:46.345Z,11.90
2018-08-18T06:55:18.370Z,11.30
2018-08-18T06:57:53.343Z,16.10
2018-08-18T07:00:27.781Z,12.10
2018-08-18T07:02:59.162Z,12.50
2018-08-18T07:05:29.577Z,9.43
2018-08-18T07:07:59.933Z,11.00
2018-08-18T07:10:33.974Z,8.07
2018-08-18T07:13:05.844Z,7.77
2018-08-18T07:15:38.780Z,8.03
2018-08-18T07:18:10.067Z,7.03
2018-08-18T07:20:40.206Z,8.53
2018-08-18T07:23:10.095Z,9.70
2018-08-18T07:25:46.201Z,9.27
2018-08-18T07:28:18.916Z,17.53
2018-08-18T07:30:49.281Z,6.50
2018-08-18T07:33:19.626Z,7.73
2018-08-18T07:35:50.644Z,5.00
2018-08-18T07:38:20.806Z,7.20
2018-08-18T07:40:52.854Z,9.53
2018-08-18T07:43:25.866Z,11.70
2018-08-18T07:45:57.588Z,7.97
2018-08-18T07:48:27.744Z,6.53
2018-08-18T07:50:58.157Z,7.53
2018-08-18T07:53:28.329Z,7.43
2018-08-18T07:55:58.313Z,6.73
2018-08-18T07:58:28.675Z,6.67
2018-08-18T08:00:59.694Z,5.73
2018-08-18T08:03:30.365Z,7.17
2018-08-18T08:06:00.667Z,8.27
2018-08-18T08:08:37.080Z,7.27
2018-08-18T08:11:12.054Z,6.77
2018-08-18T08:13:42.744Z,8.17
2018-08-18T08:16:12.906Z,6.87
2018-08-18T08:18:43.480Z,6.00
2018-08-18T08:21:13.875Z,6.03
2018-08-18T08:23:43.923Z,4.37
2018-08-18T08:26:14.518Z,8.40
2018-08-18T08:28:44.712Z,4.90
2018-08-18T08:31:15.295Z,6.37
2018-08-18T08:33:45.405Z,8.07
2018-08-18T08:36:17.466Z,5.87
2018-08-18T08:38:57.239Z,8.63
2018-08-18T08:41:29.813Z,6.47
2018-08-18T08:44:01.263Z,6.17
2018-08-18T08:46:31.556Z,5.90
2018-08-18T08:49:02.104Z,6.30
2018-08-18T08:51:31.984Z,5.60
2018-08-18T08:54:02.040Z,3.60
2018-08-18T08:56:36.968Z,4.07
2018-08-18T08:59:07.045Z,3.90
2018-08-18T09:01:36.965Z,6.43
2018-08-18T09:04:07.134Z,6.63
2018-08-18T09:06:41.282Z,5.00
2018-08-18T09:09:11.595Z,5.63
2018-08-18T09:11:41.420Z,5.77
2018-08-18T09:14:11.422Z,4.77
2018-08-18T09:16:42.140Z,8.20
2018-08-18T09:19:12.164Z,5.67
2018-08-18T09:21:46.787Z,5.90
2018-08-18T09:24:16.618Z,9.17
2018-08-18T09:26:52.405Z,5.20
2018-08-18T09:29:22.925Z,3.40
2018-08-18T09:31:52.533Z,5.30
2018-08-18T09:34:22.362Z,7.43
2018-08-18T09:36:52.338Z,9.43
2018-08-18T09:39:27.839Z,5.63
2018-08-18T09:41:57.903Z,5.07
2018-08-18T09:44:30.791Z,7.83
2018-08-18T09:47:00.769Z,6.63
2018-08-18T09:49:32.051Z,5.93
2018-08-18T09:52:02.069Z,5.97
2018-08-18T09:54:31.757Z,5.10
2018-08-18T09:57:01.732Z,4.87
2018-08-18T09:59:32.021Z,3.53
2018-08-18T10:02:01.679Z,4.80
2018-08-18T10:04:31.425Z,4.37
2018-08-18T10:07:01.478Z,3.40
2018-08-18T10:09:31.516Z,3.87
2018-08-18T10:12:02.331Z,5.57
2018-08-18T10:14:32.036Z,8.07
2018-08-18T10:17:02.165Z,5.50
2018-08-18T10:19:33.983Z,7.30
2018-08-18T10:22:04.479Z,6.50
2018-08-18T10:24:34.423Z,7.13
2018-08-18T10:27:06.378Z,6.77
2018-08-18T10:29:36.482Z,5.47
2018-08-18T10:32:09.180Z,5.77
2018-08-18T10:34:39.839Z,6.90
2018-08-18T10:37:09.879Z,5.17
2018-08-18T10:39:39.781Z,4.73
2018-08-18T10:42:15.080Z,6.20
2018-08-18T10:44:51.279Z,6.20
2018-08-18T10:47:22.538Z,3.63
2018-08-18T10:50:04.013Z,5.30
2018-08-18T10:52:45.085Z,3.97
2018-08-18T10:55:16.435Z,4.70
2018-08-18T10:57:57.303Z,5.20
2018-08-18T11:00:29.089Z,5.30
2018-08-18T11:03:00.373Z,2.50
2018-08-18T11:05:31.030Z,5.40
2018-08-18T11:08:08.295Z,4.70
2018-08-18T11:10:39.811Z,2.83
2018-08-18T11:13:09.815Z,4.17
2018-08-18T11:15:40.437Z,4.67
2018-08-18T11:18:10.613Z,3.57
2018-08-18T11:20:40.601Z,2.43
2018-08-18T11:23:14.730Z,3.47
2018-08-18T11:25:48.477Z,4.37
2018-08-18T11:28:18.993Z,6.20
2018-08-18T11:30:51.549Z,5.73
2018-08-18T11:33:37.682Z,5.83
2018-08-18T11:36:09.438Z,4.97
2018-08-18T11:38:39.401Z,6.17
2018-08-18T11:41:09.544Z,3.97
2018-08-18T11:43:46.271Z,6.37
2018-08-18T11:46:16.412Z,4.37
2018-08-18T11:48:46.468Z,5.37
2018-08-18T11:51:16.937Z,3.70
2018-08-18T11:54:00.228Z,2.60
2018-08-18T11:56:30.249Z,4.70
2018-08-18T11:59:20.081Z,4.67
2018-08-18T12:01:51.913Z,3.00
2018-08-18T12:04:23.482Z,6.37
2018-08-18T12:06:58.054Z,2.10
2018-08-18T12:09:28.766Z,3.83
2018-08-18T12:11:59.044Z,3.10
2018-08-18T12:14:29.015Z,3.77
2018-08-18T12:16:59.641Z,1.30
2018-08-18T12:19:29.517Z,3.33
2018-08-18T12:21:59.219Z,2.63
2018-08-18T12:24:29.053Z,3.80
2018-08-18T12:27:08.863Z,2.00
2018-08-18T12:29:38.820Z,3.53
2018-08-18T12:32:18.636Z,2.40
2018-08-18T12:34:50.384Z,1.57
2018-08-18T12:37:22.667Z,2.30
2018-08-18T12:39:52.921Z,4.53
2018-08-18T12:42:27.125Z,2.60
2018-08-18T12:44:57.345Z,5.67
2018-08-18T12:47:27.145Z,2.40
2018-08-18T12:49:58.039Z,2.20
2018-08-18T12:52:28.057Z,2.03
2018-08-18T12:54:57.947Z,2.07
2018-08-18T12:57:39.147Z,1.87
2018-08-18T13:00:10.555Z,2.90
2018-08-18T13:02:48.349Z,4.50
2018-08-18T13:05:19.079Z,2.67
2018-08-18T13:07:49.233Z,3.67
2018-08-18T13:10:26.925Z,3.60
2018-08-18T13:12:57.378Z,1.53
2018-08-18T13:15:27.039Z,2.63
2018-08-18T13:17:56.577Z,5.13
2018-08-18T13:20:27.457Z,3.07
2018-08-18T13:22:58.044Z,1.87
2018-08-18T13:25:28.001Z,4.30
2018-08-18T13:27:58.223Z,3.43
2018-08-18T13:30:28.896Z,2.97
2018-08-18T13:32:59.929Z,3.03
2018-08-18T13:35:29.813Z,1.90
2018-08-18T13:37:59.407Z,1.43
2018-08-18T13:40:29.720Z,3.27
2018-08-18T13:42:59.469Z,1.73
2018-08-18T13:45:40.380Z,2.57
2018-08-18T13:48:12.320Z,2.97
2018-08-18T13:50:42.594Z,2.83
2018-08-18T13:53:12.615Z,3.67
2018-08-18T13:55:42.472Z,2.13
2018-08-18T13:58:13.240Z,2.63
2018-08-18T14:00:43.448Z,3.53
2018-08-18T14:03:29.432Z,1.57
2018-08-18T14:05:59.466Z,2.73
2018-08-18T14:08:29.812Z,1.67
2018-08-18T14:10:59.458Z,3.10
2018-08-18T14:13:30.132Z,2.63
2018-08-18T14:16:00.752Z,2.57
2018-08-18T14:18:30.790Z,1.80
2018-08-18T14:21:06.880Z,2.90
2018-08-18T14:23:38.098Z,3.20
2018-08-18T14:26:09.052Z,3.60
2018-08-18T14:28:39.084Z,2.90
2018-08-18T14:31:09.178Z,2.87
2018-08-18T14:33:39.385Z,2.80
2018-08-18T14:36:13.360Z,2.30
2018-08-18T14:38:44.971Z,3.63
2018-08-18T14:41:17.220Z,3.00
2018-08-18T14:43:46.996Z,2.60
2018-08-18T14:46:16.759Z,4.70
2018-08-18T14:48:46.528Z,3.37
2018-08-18T14:51:16.634Z,4.10
2018-08-18T14:53:46.618Z,4.77
2018-08-18T14:56:16.775Z,3.57
2018-08-18T14:58:46.745Z,2.07
2018-08-18T15:01:16.699Z,3.63
2018-08-18T15:03:46.786Z,2.00
2018-08-18T15:06:16.652Z,4.17
2018-08-18T15:08:46.783Z,3.80
2018-08-18T15:11:16.694Z,3.33
2018-08-18T15:13:46.742Z,5.10
2018-08-18T15:16:17.088Z,2.93
2018-08-18T15:18:46.896Z,2.00
2018-08-18T15:21:16.567Z,3.10
2018-08-18T15:23:46.141Z,4.30
2018-08-18T15:26:15.886Z,3.87
2018-08-18T15:28:45.952Z,4.77
2018-08-18T15:31:15.636Z,3.60
2018-08-18T15:33:45.567Z,6.03
2018-08-18T15:36:26.367Z,3.03
2018-08-18T15:38:56.563Z,3.57
2018-08-18T15:41:26.902Z,4.67
2018-08-18T15:43:57.081Z,3.80
2018-08-18T15:46:33.223Z,3.17
2018-08-18T15:49:03.033Z,4.50
2018-08-18T15:51:32.956Z,4.83
2018-08-18T15:54:04.359Z,4.37
2018-08-18T15:56:35.595Z,4.00
2018-08-18T15:59:05.909Z,4.47
2018-08-18T16:01:36.711Z,4.97
2018-08-18T16:04:07.583Z,4.83
2018-08-18T16:06:37.408Z,2.57
2018-08-18T16:09:09.211Z,4.23
2018-08-18T16:11:39.108Z,4.37
2018-08-18T16:14:09.119Z,4.57
2018-08-18T16:16:54.052Z,2.17
2018-08-18T16:19:23.624Z,2.80
2018-08-18T16:21:53.500Z,3.23
2018-08-18T16:24:33.044Z,3.17
2018-08-18T16:27:06.831Z,3.77
2018-08-18T16:29:38.461Z,3.63
2018-08-18T16:32:26.658Z,3.83
2018-08-18T16:35:02.058Z,5.07
2018-08-18T16:37:36.620Z,4.30
2018-08-18T16:40:07.234Z,5.43
2018-08-18T16:42:38.230Z,5.20
2018-08-18T16:45:08.020Z,3.73
2018-08-18T16:47:41.603Z,5.87
2018-08-18T16:50:11.841Z,4.90
2018-08-18T16:52:41.824Z,4.27
2018-08-18T16:55:13.172Z,4.27
2018-08-18T16:57:44.370Z,2.77
2018-08-18T17:00:15.999Z,3.53
2018-08-18T17:02:47.103Z,3.20
2018-08-18T17:05:18.654Z,2.70
2018-08-18T17:07:49.581Z,5.27
2018-08-18T17:10:20.526Z,6.00
2018-08-18T17:12:51.626Z,2.80
2018-08-18T17:15:22.194Z,4.60
2018-08-18T17:17:52.458Z,6.10
2018-08-18T17:20:22.742Z,2.83
2018-08-18T17:22:52.726Z,4.03
2018-08-18T17:25:24.998Z,4.23
2018-08-18T17:27:55.420Z,5.60
2018-08-18T17:30:25.600Z,6.23
2018-08-18T17:32:55.656Z,4.50
2018-08-18T17:35:26.124Z,3.27
2018-08-18T17:37:56.386Z,2.90
2018-08-18T17:40:26.860Z,5.17
2018-08-18T17:42:57.395Z,2.57
2018-08-18T17:45:27.396Z,2.73
2018-08-18T17:47:57.328Z,4.53
2018-08-18T17:50:32.381Z,3.43
2018-08-18T17:53:02.760Z,3.60
2018-08-18T17:55:32.568Z,3.40
2018-08-18T17:58:02.309Z,4.93
2018-08-18T18:00:32.166Z,5.67
2018-08-18T18:03:02.680Z,3.60
2018-08-18T18:05:34.234Z,4.17
2018-08-18T18:08:07.731Z,5.83
2018-08-18T18:10:38.724Z,5.17
2018-08-18T18:13:16.230Z,4.33
2018-08-18T18:15:47.229Z,4.90
2018-08-18T18:18:20.552Z,2.97
2018-08-18T18:20:51.966Z,5.67
2018-08-18T18:23:21.978Z,3.40
2018-08-18T18:25:51.812Z,5.23
2018-08-18T18:28:21.785Z,5.83
2018-08-18T18:30:53.098Z,6.77
2018-08-18T18:33:22.727Z,6.10
2018-08-18T18:35:52.186Z,4.30
2018-08-18T18:38:21.389Z,3.93
2018-08-18T18:40:50.662Z,4.80
2018-08-18T18:43:20.015Z,4.97
2018-08-18T18:45:49.247Z,4.37
2018-08-18T18:48:18.507Z,9.77
2018-08-18T18:50:49.309Z,6.87
2018-08-18T18:53:18.523Z,8.27
2018-08-18T18:55:51.929Z,7.43
2018-08-18T18:58:21.108Z,8.10
2018-08-18T19:00:56.055Z,8.50
2018-08-18T19:03:25.210Z,7.60
2018-08-18T19:05:54.448Z,7.23
2018-08-18T19:08:23.596Z,6.33
2018-08-18T19:10:52.962Z,6.87
2018-08-18T19:13:22.157Z,6.63
2018-08-18T19:15:51.684Z,7.10
2018-08-18T19:18:20.883Z,6.20
2018-08-18T19:20:50.063Z,5.87
2018-08-18T19:23:20.508Z,4.37
2018-08-18T19:25:51.015Z,4.70
2018-08-18T19:28:21.847Z,5.03
2018-08-18T19:30:51.266Z,3.57
2018-08-18T19:33:20.895Z,4.73
2018-08-18T19:35:51.316Z,2.53
2018-08-18T19:38:22.054Z,4.63
2018-08-18T19:40:53.511Z,5.00
2018-08-18T19:43:23.936Z,2.60
2018-08-18T19:45:53.928Z,3.27
2018-08-18T19:48:26.609Z,2.50
2018-08-18T19:51:01.272Z,3.13
2018-08-18T19:53:31.923Z,5.13
2018-08-18T19:56:02.370Z,3.23
2018-08-18T19:58:32.106Z,4.00
2018-08-18T20:01:02.126Z,6.37
2018-08-18T20:03:31.243Z,2.70
2018-08-18T20:06:01.865Z,4.37
2018-08-18T20:08:32.988Z,5.83
2018-08-18T20:11:05.103Z,3.80
2018-08-18T20:13:36.531Z,4.30
2018-08-18T20:16:07.996Z,3.40
2018-08-18T20:18:39.382Z,6.83
2018-08-18T20:21:09.910Z,4.57
2018-08-18T20:23:40.628Z,5.03
2018-08-18T20:26:11.701Z,4.53
2018-08-18T20:28:43.977Z,5.73
2018-08-18T20:31:17.041Z,5.73
2018-08-18T20:33:49.502Z,7.87
2018-08-18T20:36:20.018Z,8.77
2018-08-18T20:38:50.041Z,10.33
2018-08-18T20:41:21.047Z,4.73
2018-08-18T20:43:51.448Z,9.30
2018-08-18T20:46:21.418Z,10.17
2018-08-18T20:48:51.463Z,10.00
2018-08-18T20:51:26.511Z,7.60
2018-08-18T20:53:56.589Z,5.47
2018-08-18T20:56:26.722Z,8.27
2018-08-18T20:58:56.174Z,6.30
2018-08-18T21:01:25.454Z,4.23
2018-08-18T21:03:55.010Z,8.17
2018-08-18T21:06:24.658Z,9.77
2018-08-18T21:08:55.164Z,6.23
2018-08-18T21:11:24.324Z,5.93
2018-08-18T21:13:53.757Z,4.90
2018-08-18T21:16:23.960Z,8.00
2018-08-18T21:18:53.201Z,7.27
2018-08-18T21:21:28.974Z,6.50
2018-08-18T21:23:58.257Z,5.43
2018-08-18T21:26:27.602Z,6.63
2018-08-18T21:28:57.587Z,7.53
2018-08-18T21:31:33.227Z,8.73
2018-08-18T21:34:03.807Z,6.10
2018-08-18T21:36:33.275Z,7.83
2018-08-18T21:39:05.870Z,9.90
2018-08-18T21:41:39.631Z,7.57
2018-08-18T21:44:10.601Z,9.13
2018-08-18T21:46:40.356Z,8.60
2018-08-18T21:49:10.370Z,7.83
2018-08-18T21:51:39.798Z,7.67
2018-08-18T21:54:09.179Z,11.40
2018-08-18T21:56:39.741Z,11.07
2018-08-18T21:59:11.876Z,9.13
2018-08-18T22:01:41.168Z,9.37
2018-08-18T22:04:10.432Z,11.70
2018-08-18T22:06:39.647Z,12.83
2018-08-18T22:09:20.644Z,10.37
2018-08-18T22:11:50.051Z,8.33
2018-08-18T22:14:19.644Z,9.57
2018-08-18T22:16:54.003Z,11.07
2018-08-18T22:19:23.533Z,12.53
2018-08-18T22:21:52.947Z,12.40
2018-08-18T22:24:22.370Z,12.60
2018-08-18T22:26:51.871Z,10.57
2018-08-18T22:29:25.657Z,10.13
2018-08-18T22:31:55.092Z,12.03
2018-08-18T22:34:24.245Z,12.30
2018-08-18T22:37:03.095Z,11.83
2018-08-18T22:39:32.545Z,12.93
2018-08-18T22:42:01.724Z,11.27
2018-08-18T22:44:31.172Z,13.37
2018-08-18T22:47:02.881Z,13.47
2018-08-18T22:49:32.125Z,13.93
2018-08-18T22:52:01.393Z,10.30
2018-08-18T22:54:30.784Z,10.10
2018-08-18T22:57:01.614Z,14.43
2018-08-18T22:59:31.361Z,11.77
2018-08-18T23:02:00.853Z,14.47
2018-08-18T23:04:34.882Z,14.03
2018-08-18T23:07:05.050Z,13.07
2018-08-18T23:09:34.257Z,10.70
2018-08-18T23:12:05.230Z,13.90
2018-08-18T23:14:35.934Z,11.13
2018-08-18T23:17:05.651Z,10.33
2018-08-18T23:19:34.846Z,13.43
2018-08-18T23:22:04.424Z,13.17
2018-08-18T23:24:38.058Z,10.67
2018-08-18T23:27:07.330Z,10.60
2018-08-18T23:29:36.664Z,10.43
2018-08-18T23:32:13.957Z,10.67
2018-08-18T23:34:43.304Z,12.73
2018-08-18T23:37:16.817Z,9.97
2018-08-18T23:39:46.017Z,10.53
2018-08-18T23:42:19.694Z,12.73
2018-08-18T23:44:49.326Z,12.67
2018-08-18T23:47:19.094Z,10.23
2018-08-18T23:49:48.671Z,8.70
2018-08-18T23:52:18.202Z,10.50
2018-08-18T23:54:47.566Z,10.10
2018-08-18T23:57:17.801Z,11.00
2018-08-18T23:59:47.392Z,12.73
